sensor_id;sensor_type;location;lat;lon;timestamp;P1;durP1;ratioP1;P2;durP2;ratioP2
33491;SDS011;20010;51.488;7.232;2023-02-04T00:01:18;15.25;;;4.57;;
33491;SDS011;20010;51.488;7.232;2023-02-04T00:03:45;18.10;;;5.03;;
33491;SDS011;20010;51.488;7.232;2023-02-04T00:06:18;22.08;;;4.68;;
33491;SDS011;20010;51.488;7.232;2023-02-04T00:08:45;21.45;;;6.55;;
33491;SDS011;20010;51.488;7.232;2023-02-04T00:11:13;20.73;;;6.25;;
33491;SDS011;20010;51.488;7.232;2023-02-04T00:13:47;23.38;;;4.80;;
33491;SDS011;20010;51.488;7.232;2023-02-04T00:16:14;21.80;;;5.00;;
33491;SDS011;20010;51.488;7.232;2023-02-04T00:18:45;29.73;;;6.70;;
33491;SDS011;20010;51.488;7.232;2023-02-04T00:21:22;21.30;;;4.53;;
33491;SDS011;20010;51.488;7.232;2023-02-04T00:23:52;19.15;;;4.65;;
33491;SDS011;20010;51.488;7.232;2023-02-04T00:26:25;21.17;;;5.10;;
33491;SDS011;20010;51.488;7.232;2023-02-04T00:28:54;29.70;;;5.05;;
33491;SDS011;20010;51.488;7.232;2023-02-04T00:31:23;17.65;;;5.78;;
33491;SDS011;20010;51.488;7.232;2023-02-04T00:33:51;27.05;;;6.03;;
33491;SDS011;20010;51.488;7.232;2023-02-04T00:36:25;23.90;;;5.85;;
33491;SDS011;20010;51.488;7.232;2023-02-04T00:38:52;26.77;;;4.60;;
33491;SDS011;20010;51.488;7.232;2023-02-04T00:41:23;19.33;;;5.72;;
33491;SDS011;20010;51.488;7.232;2023-02-04T00:43:54;22.20;;;4.88;;
33491;SDS011;20010;51.488;7.232;2023-02-04T00:48:51;23.45;;;4.65;;
33491;SDS011;20010;51.488;7.232;2023-02-04T00:51:23;19.17;;;5.90;;
33491;SDS011;20010;51.488;7.232;2023-02-04T00:53:52;21.77;;;5.45;;
33491;SDS011;20010;51.488;7.232;2023-02-04T00:56:22;19.10;;;4.63;;
33491;SDS011;20010;51.488;7.232;2023-02-04T00:58:50;19.67;;;5.57;;
33491;SDS011;20010;51.488;7.232;2023-02-04T01:01:20;16.67;;;5.38;;
33491;SDS011;20010;51.488;7.232;2023-02-04T01:03:49;16.50;;;4.95;;
33491;SDS011;20010;51.488;7.232;2023-02-04T01:06:21;27.83;;;5.28;;
33491;SDS011;20010;51.488;7.232;2023-02-04T01:09:10;20.60;;;4.97;;
33491;SDS011;20010;51.488;7.232;2023-02-04T01:11:54;28.83;;;6.70;;
33491;SDS011;20010;51.488;7.232;2023-02-04T01:14:23;16.98;;;4.15;;
33491;SDS011;20010;51.488;7.232;2023-02-04T01:17:15;21.65;;;5.15;;
33491;SDS011;20010;51.488;7.232;2023-02-04T01:19:46;23.92;;;5.60;;
33491;SDS011;20010;51.488;7.232;2023-02-04T01:22:16;19.45;;;4.68;;
33491;SDS011;20010;51.488;7.232;2023-02-04T01:24:44;17.77;;;4.13;;
33491;SDS011;20010;51.488;7.232;2023-02-04T01:27:14;26.00;;;4.63;;
33491;SDS011;20010;51.488;7.232;2023-02-04T01:29:47;20.60;;;5.47;;
33491;SDS011;20010;51.488;7.232;2023-02-04T01:32:15;22.48;;;5.28;;
33491;SDS011;20010;51.488;7.232;2023-02-04T01:34:46;20.25;;;5.15;;
33491;SDS011;20010;51.488;7.232;2023-02-04T01:37:15;15.90;;;4.47;;
33491;SDS011;20010;51.488;7.232;2023-02-04T01:39:44;21.00;;;6.57;;
33491;SDS011;20010;51.488;7.232;2023-02-04T01:42:37;21.67;;;4.78;;
33491;SDS011;20010;51.488;7.232;2023-02-04T01:45:09;25.10;;;6.05;;
33491;SDS011;20010;51.488;7.232;2023-02-04T01:47:38;28.13;;;5.22;;
33491;SDS011;20010;51.488;7.232;2023-02-04T01:50:12;21.67;;;4.78;;
33491;SDS011;20010;51.488;7.232;2023-02-04T01:52:43;25.52;;;5.28;;
33491;SDS011;20010;51.488;7.232;2023-02-04T01:55:15;26.50;;;5.78;;
33491;SDS011;20010;51.488;7.232;2023-02-04T01:57:46;23.35;;;6.10;;
33491;SDS011;20010;51.488;7.232;2023-02-04T02:00:18;22.70;;;4.90;;
33491;SDS011;20010;51.488;7.232;2023-02-04T02:02:51;17.17;;;4.95;;
33491;SDS011;20010;51.488;7.232;2023-02-04T02:05:29;19.30;;;5.15;;
33491;SDS011;20010;51.488;7.232;2023-02-04T02:07:59;25.60;;;5.88;;
33491;SDS011;20010;51.488;7.232;2023-02-04T02:10:28;27.20;;;6.45;;
33491;SDS011;20010;51.488;7.232;2023-02-04T02:12:57;23.15;;;4.97;;
33491;SDS011;20010;51.488;7.232;2023-02-04T02:15:27;26.52;;;6.65;;
33491;SDS011;20010;51.488;7.232;2023-02-04T02:17:57;15.73;;;5.00;;
33491;SDS011;20010;51.488;7.232;2023-02-04T02:20:26;29.25;;;5.65;;
33491;SDS011;20010;51.488;7.232;2023-02-04T02:25:53;26.70;;;8.27;;
33491;SDS011;20010;51.488;7.232;2023-02-04T02:28:21;21.50;;;5.10;;
33491;SDS011;20010;51.488;7.232;2023-02-04T02:30:55;19.23;;;5.40;;
33491;SDS011;20010;51.488;7.232;2023-02-04T02:33:24;22.38;;;5.65;;
33491;SDS011;20010;51.488;7.232;2023-02-04T02:35:51;23.15;;;4.88;;
33491;SDS011;20010;51.488;7.232;2023-02-04T02:40:52;22.58;;;4.97;;
33491;SDS011;20010;51.488;7.232;2023-02-04T02:43:25;31.23;;;6.80;;
33491;SDS011;20010;51.488;7.232;2023-02-04T02:45:55;21.75;;;5.13;;
33491;SDS011;20010;51.488;7.232;2023-02-04T02:48:32;31.63;;;6.25;;
33491;SDS011;20010;51.488;7.232;2023-02-04T02:51:06;26.50;;;5.85;;
33491;SDS011;20010;51.488;7.232;2023-02-04T02:53:34;18.02;;;5.40;;
33491;SDS011;20010;51.488;7.232;2023-02-04T02:56:02;19.35;;;5.40;;
33491;SDS011;20010;51.488;7.232;2023-02-04T02:58:32;23.50;;;6.25;;
33491;SDS011;20010;51.488;7.232;2023-02-04T03:01:03;18.20;;;4.90;;
33491;SDS011;20010;51.488;7.232;2023-02-04T03:03:36;23.35;;;6.00;;
33491;SDS011;20010;51.488;7.232;2023-02-04T03:06:19;25.20;;;5.03;;
33491;SDS011;20010;51.488;7.232;2023-02-04T03:08:50;18.58;;;4.38;;
33491;SDS011;20010;51.488;7.232;2023-02-04T03:11:24;24.20;;;5.35;;
33491;SDS011;20010;51.488;7.232;2023-02-04T03:13:58;22.02;;;6.32;;
33491;SDS011;20010;51.488;7.232;2023-02-04T03:16:30;25.83;;;5.38;;
33491;SDS011;20010;51.488;7.232;2023-02-04T03:19:02;21.80;;;4.50;;
33491;SDS011;20010;51.488;7.232;2023-02-04T03:21:34;26.65;;;5.70;;
33491;SDS011;20010;51.488;7.232;2023-02-04T03:24:05;24.07;;;5.17;;
33491;SDS011;20010;51.488;7.232;2023-02-04T03:26:33;32.88;;;7.60;;
33491;SDS011;20010;51.488;7.232;2023-02-04T03:29:00;26.00;;;6.07;;
33491;SDS011;20010;51.488;7.232;2023-02-04T03:31:28;22.10;;;6.03;;
33491;SDS011;20010;51.488;7.232;2023-02-04T03:33:55;22.30;;;5.45;;
33491;SDS011;20010;51.488;7.232;2023-02-04T03:36:23;23.63;;;5.22;;
33491;SDS011;20010;51.488;7.232;2023-02-04T03:38:59;29.10;;;6.25;;
33491;SDS011;20010;51.488;7.232;2023-02-04T03:41:29;30.30;;;6.15;;
33491;SDS011;20010;51.488;7.232;2023-02-04T03:43:58;23.13;;;5.30;;
33491;SDS011;20010;51.488;7.232;2023-02-04T03:46:27;19.55;;;5.13;;
33491;SDS011;20010;51.488;7.232;2023-02-04T03:48:55;19.85;;;6.40;;
33491;SDS011;20010;51.488;7.232;2023-02-04T03:51:26;22.33;;;4.20;;
33491;SDS011;20010;51.488;7.232;2023-02-04T03:54:03;21.08;;;5.88;;
33491;SDS011;20010;51.488;7.232;2023-02-04T03:56:33;30.08;;;5.82;;
33491;SDS011;20010;51.488;7.232;2023-02-04T03:59:01;22.85;;;6.38;;
33491;SDS011;20010;51.488;7.232;2023-02-04T04:01:29;22.42;;;5.00;;
33491;SDS011;20010;51.488;7.232;2023-02-04T04:03:59;24.05;;;5.13;;
33491;SDS011;20010;51.488;7.232;2023-02-04T04:06:26;23.13;;;6.55;;
33491;SDS011;20010;51.488;7.232;2023-02-04T04:09:24;30.10;;;5.95;;
33491;SDS011;20010;51.488;7.232;2023-02-04T04:11:57;23.95;;;6.45;;
33491;SDS011;20010;51.488;7.232;2023-02-04T04:14:30;23.98;;;5.35;;
33491;SDS011;20010;51.488;7.232;2023-02-04T04:16:58;32.50;;;7.57;;
33491;SDS011;20010;51.488;7.232;2023-02-04T04:19:25;26.83;;;5.15;;
33491;SDS011;20010;51.488;7.232;2023-02-04T04:21:53;20.25;;;5.72;;
33491;SDS011;20010;51.488;7.232;2023-02-04T04:24:25;26.92;;;6.32;;
33491;SDS011;20010;51.488;7.232;2023-02-04T04:26:53;27.30;;;6.63;;
33491;SDS011;20010;51.488;7.232;2023-02-04T04:29:25;18.83;;;4.47;;
33491;SDS011;20010;51.488;7.232;2023-02-04T04:31:53;24.10;;;6.55;;
33491;SDS011;20010;51.488;7.232;2023-02-04T04:34:21;31.15;;;5.63;;
33491;SDS011;20010;51.488;7.232;2023-02-04T04:36:51;22.58;;;4.88;;
33491;SDS011;20010;51.488;7.232;2023-02-04T04:39:18;32.08;;;5.15;;
33491;SDS011;20010;51.488;7.232;2023-02-04T04:41:46;28.45;;;6.18;;
33491;SDS011;20010;51.488;7.232;2023-02-04T04:44:13;20.80;;;5.15;;
33491;SDS011;20010;51.488;7.232;2023-02-04T04:46:43;29.03;;;5.33;;
33491;SDS011;20010;51.488;7.232;2023-02-04T04:49:13;21.95;;;5.43;;
33491;SDS011;20010;51.488;7.232;2023-02-04T04:51:52;24.63;;;5.18;;
33491;SDS011;20010;51.488;7.232;2023-02-04T04:54:21;24.05;;;5.30;;
33491;SDS011;20010;51.488;7.232;2023-02-04T04:56:49;26.67;;;5.07;;
33491;SDS011;20010;51.488;7.232;2023-02-04T04:59:16;15.23;;;4.18;;
33491;SDS011;20010;51.488;7.232;2023-02-04T05:06:42;25.40;;;6.07;;
33491;SDS011;20010;51.488;7.232;2023-02-04T05:09:09;23.75;;;5.65;;
33491;SDS011;20010;51.488;7.232;2023-02-04T05:11:35;23.02;;;6.03;;
33491;SDS011;20010;51.488;7.232;2023-02-04T05:14:02;21.77;;;5.75;;
33491;SDS011;20010;51.488;7.232;2023-02-04T05:16:28;24.20;;;5.75;;
33491;SDS011;20010;51.488;7.232;2023-02-04T05:18:55;28.33;;;6.20;;
33491;SDS011;20010;51.488;7.232;2023-02-04T05:21:21;22.17;;;5.13;;
33491;SDS011;20010;51.488;7.232;2023-02-04T05:23:47;26.45;;;5.95;;
33491;SDS011;20010;51.488;7.232;2023-02-04T05:26:14;22.60;;;5.95;;
33491;SDS011;20010;51.488;7.232;2023-02-04T05:28:55;24.98;;;5.20;;
33491;SDS011;20010;51.488;7.232;2023-02-04T05:31:21;17.58;;;4.85;;
33491;SDS011;20010;51.488;7.232;2023-02-04T05:33:48;22.88;;;6.35;;
33491;SDS011;20010;51.488;7.232;2023-02-04T05:36:14;24.90;;;5.32;;
33491;SDS011;20010;51.488;7.232;2023-02-04T05:38:41;21.75;;;4.97;;
33491;SDS011;20010;51.488;7.232;2023-02-04T05:41:08;28.02;;;6.65;;
33491;SDS011;20010;51.488;7.232;2023-02-04T05:43:34;29.15;;;7.03;;
33491;SDS011;20010;51.488;7.232;2023-02-04T05:46:01;16.60;;;5.20;;
33491;SDS011;20010;51.488;7.232;2023-02-04T05:48:27;22.88;;;5.53;;
33491;SDS011;20010;51.488;7.232;2023-02-04T05:50:54;19.63;;;6.93;;
33491;SDS011;20010;51.488;7.232;2023-02-04T05:53:20;27.05;;;6.03;;
33491;SDS011;20010;51.488;7.232;2023-02-04T05:55:47;29.55;;;7.47;;
33491;SDS011;20010;51.488;7.232;2023-02-04T05:58:13;29.20;;;6.18;;
33491;SDS011;20010;51.488;7.232;2023-02-04T06:00:40;23.42;;;7.03;;
33491;SDS011;20010;51.488;7.232;2023-02-04T06:03:06;32.10;;;7.65;;
33491;SDS011;20010;51.488;7.232;2023-02-04T06:05:33;19.33;;;6.13;;
33491;SDS011;20010;51.488;7.232;2023-02-04T06:07:59;19.60;;;6.60;;
33491;SDS011;20010;51.488;7.232;2023-02-04T06:10:26;23.13;;;6.22;;
33491;SDS011;20010;51.488;7.232;2023-02-04T06:12:52;22.42;;;5.20;;
33491;SDS011;20010;51.488;7.232;2023-02-04T06:15:19;27.20;;;5.93;;
33491;SDS011;20010;51.488;7.232;2023-02-04T06:17:45;31.73;;;6.63;;
33491;SDS011;20010;51.488;7.232;2023-02-04T06:20:12;25.30;;;5.38;;
33491;SDS011;20010;51.488;7.232;2023-02-04T06:22:39;19.33;;;4.68;;
33491;SDS011;20010;51.488;7.232;2023-02-04T06:25:06;25.27;;;7.03;;
33491;SDS011;20010;51.488;7.232;2023-02-04T06:27:33;20.35;;;5.88;;
33491;SDS011;20010;51.488;7.232;2023-02-04T06:29:59;29.20;;;5.15;;
33491;SDS011;20010;51.488;7.232;2023-02-04T06:32:26;20.95;;;5.72;;
33491;SDS011;20010;51.488;7.232;2023-02-04T06:34:52;23.67;;;5.32;;
33491;SDS011;20010;51.488;7.232;2023-02-04T06:37:19;26.30;;;5.47;;
33491;SDS011;20010;51.488;7.232;2023-02-04T06:39:45;20.90;;;4.72;;
33491;SDS011;20010;51.488;7.232;2023-02-04T06:42:12;22.20;;;6.13;;
33491;SDS011;20010;51.488;7.232;2023-02-04T06:44:38;21.80;;;5.47;;
33491;SDS011;20010;51.488;7.232;2023-02-04T06:47:05;26.75;;;5.55;;
33491;SDS011;20010;51.488;7.232;2023-02-04T06:49:31;27.33;;;6.03;;
33491;SDS011;20010;51.488;7.232;2023-02-04T06:51:58;21.80;;;5.90;;
33491;SDS011;20010;51.488;7.232;2023-02-04T06:54:24;22.00;;;5.47;;
33491;SDS011;20010;51.488;7.232;2023-02-04T06:56:51;25.58;;;5.60;;
33491;SDS011;20010;51.488;7.232;2023-02-04T06:59:17;23.20;;;4.55;;
33491;SDS011;20010;51.488;7.232;2023-02-04T07:01:45;22.80;;;5.70;;
33491;SDS011;20010;51.488;7.232;2023-02-04T07:04:11;29.63;;;7.18;;
33491;SDS011;20010;51.488;7.232;2023-02-04T07:06:38;23.25;;;5.70;;
33491;SDS011;20010;51.488;7.232;2023-02-04T07:09:04;20.77;;;5.05;;
33491;SDS011;20010;51.488;7.232;2023-02-04T07:11:31;20.58;;;5.82;;
33491;SDS011;20010;51.488;7.232;2023-02-04T07:13:57;26.05;;;6.03;;
33491;SDS011;20010;51.488;7.232;2023-02-04T07:16:24;18.42;;;5.45;;
33491;SDS011;20010;51.488;7.232;2023-02-04T07:18:50;21.23;;;6.72;;
33491;SDS011;20010;51.488;7.232;2023-02-04T07:21:16;33.22;;;9.23;;
33491;SDS011;20010;51.488;7.232;2023-02-04T07:23:43;25.30;;;7.13;;
33491;SDS011;20010;51.488;7.232;2023-02-04T07:26:09;25.98;;;7.68;;
33491;SDS011;20010;51.488;7.232;2023-02-04T07:28:36;29.20;;;5.78;;
33491;SDS011;20010;51.488;7.232;2023-02-04T07:31:02;27.42;;;6.65;;
33491;SDS011;20010;51.488;7.232;2023-02-04T07:33:29;23.60;;;5.80;;
33491;SDS011;20010;51.488;7.232;2023-02-04T07:35:55;23.13;;;5.57;;
33491;SDS011;20010;51.488;7.232;2023-02-04T07:38:22;32.00;;;6.05;;
33491;SDS011;20010;51.488;7.232;2023-02-04T07:40:49;25.83;;;5.63;;
33491;SDS011;20010;51.488;7.232;2023-02-04T07:43:15;21.98;;;5.38;;
33491;SDS011;20010;51.488;7.232;2023-02-04T07:45:42;26.17;;;6.05;;
33491;SDS011;20010;51.488;7.232;2023-02-04T07:48:09;20.00;;;5.68;;
33491;SDS011;20010;51.488;7.232;2023-02-04T07:50:36;23.23;;;5.70;;
33491;SDS011;20010;51.488;7.232;2023-02-04T07:53:02;26.85;;;5.97;;
33491;SDS011;20010;51.488;7.232;2023-02-04T07:55:29;39.80;;;9.55;;
33491;SDS011;20010;51.488;7.232;2023-02-04T07:57:55;26.33;;;7.25;;
33491;SDS011;20010;51.488;7.232;2023-02-04T08:00:22;29.55;;;6.40;;
33491;SDS011;20010;51.488;7.232;2023-02-04T08:02:49;23.55;;;5.10;;
33491;SDS011;20010;51.488;7.232;2023-02-04T08:05:16;23.70;;;5.10;;
33491;SDS011;20010;51.488;7.232;2023-02-04T08:07:42;35.20;;;7.55;;
33491;SDS011;20010;51.488;7.232;2023-02-04T08:10:09;17.55;;;5.10;;
33491;SDS011;20010;51.488;7.232;2023-02-04T08:12:36;25.15;;;5.47;;
33491;SDS011;20010;51.488;7.232;2023-02-04T08:15:03;23.35;;;6.28;;
33491;SDS011;20010;51.488;7.232;2023-02-04T08:17:32;23.38;;;5.03;;
33491;SDS011;20010;51.488;7.232;2023-02-04T08:19:59;23.90;;;6.20;;
33491;SDS011;20010;51.488;7.232;2023-02-04T08:22:25;30.95;;;6.97;;
33491;SDS011;20010;51.488;7.232;2023-02-04T08:24:51;20.73;;;5.13;;
33491;SDS011;20010;51.488;7.232;2023-02-04T08:27:18;22.25;;;5.32;;
33491;SDS011;20010;51.488;7.232;2023-02-04T08:29:44;26.05;;;5.75;;
33491;SDS011;20010;51.488;7.232;2023-02-04T08:32:11;19.33;;;6.25;;
33491;SDS011;20010;51.488;7.232;2023-02-04T08:34:41;21.73;;;6.40;;
33491;SDS011;20010;51.488;7.232;2023-02-04T08:37:09;30.83;;;5.93;;
33491;SDS011;20010;51.488;7.232;2023-02-04T08:39:38;19.80;;;5.63;;
33491;SDS011;20010;51.488;7.232;2023-02-04T08:42:25;19.88;;;4.72;;
33491;SDS011;20010;51.488;7.232;2023-02-04T08:44:52;25.80;;;6.28;;
33491;SDS011;20010;51.488;7.232;2023-02-04T08:47:18;24.98;;;7.13;;
33491;SDS011;20010;51.488;7.232;2023-02-04T08:49:45;26.98;;;5.90;;
33491;SDS011;20010;51.488;7.232;2023-02-04T08:52:11;24.60;;;6.57;;
33491;SDS011;20010;51.488;7.232;2023-02-04T08:54:37;21.85;;;6.20;;
33491;SDS011;20010;51.488;7.232;2023-02-04T08:57:04;30.60;;;5.85;;
33491;SDS011;20010;51.488;7.232;2023-02-04T08:59:30;29.50;;;6.57;;
33491;SDS011;20010;51.488;7.232;2023-02-04T09:01:57;24.48;;;7.13;;
33491;SDS011;20010;51.488;7.232;2023-02-04T09:04:24;21.63;;;6.53;;
33491;SDS011;20010;51.488;7.232;2023-02-04T09:06:50;36.00;;;11.82;;
33491;SDS011;20010;51.488;7.232;2023-02-04T09:09:17;31.15;;;9.05;;
33491;SDS011;20010;51.488;7.232;2023-02-04T09:11:46;32.05;;;10.27;;
33491;SDS011;20010;51.488;7.232;2023-02-04T09:14:13;29.50;;;7.47;;
33491;SDS011;20010;51.488;7.232;2023-02-04T09:16:40;33.33;;;6.47;;
33491;SDS011;20010;51.488;7.232;2023-02-04T09:19:06;28.50;;;6.45;;
33491;SDS011;20010;51.488;7.232;2023-02-04T09:21:36;31.77;;;6.57;;
33491;SDS011;20010;51.488;7.232;2023-02-04T09:24:02;26.33;;;6.97;;
33491;SDS011;20010;51.488;7.232;2023-02-04T09:26:29;25.05;;;6.22;;
33491;SDS011;20010;51.488;7.232;2023-02-04T09:28:55;27.13;;;6.43;;
33491;SDS011;20010;51.488;7.232;2023-02-04T09:31:22;38.13;;;8.80;;
33491;SDS011;20010;51.488;7.232;2023-02-04T09:33:48;24.95;;;7.50;;
33491;SDS011;20010;51.488;7.232;2023-02-04T09:36:15;39.88;;;7.53;;
33491;SDS011;20010;51.488;7.232;2023-02-04T09:38:42;30.48;;;7.43;;
33491;SDS011;20010;51.488;7.232;2023-02-04T09:41:09;24.50;;;6.50;;
33491;SDS011;20010;51.488;7.232;2023-02-04T09:43:40;28.42;;;6.72;;
33491;SDS011;20010;51.488;7.232;2023-02-04T09:46:12;28.23;;;6.53;;
33491;SDS011;20010;51.488;7.232;2023-02-04T09:48:44;29.02;;;8.18;;
33491;SDS011;20010;51.488;7.232;2023-02-04T09:51:17;30.60;;;7.43;;
33491;SDS011;20010;51.488;7.232;2023-02-04T09:53:46;23.25;;;6.13;;
33491;SDS011;20010;51.488;7.232;2023-02-04T09:56:13;30.70;;;6.28;;
33491;SDS011;20010;51.488;7.232;2023-02-04T09:58:40;28.83;;;7.57;;
33491;SDS011;20010;51.488;7.232;2023-02-04T10:03:41;24.23;;;7.50;;
33491;SDS011;20010;51.488;7.232;2023-02-04T10:08:42;33.43;;;8.57;;
33491;SDS011;20010;51.488;7.232;2023-02-04T10:11:09;35.38;;;10.00;;
33491;SDS011;20010;51.488;7.232;2023-02-04T10:13:43;27.80;;;8.02;;
33491;SDS011;20010;51.488;7.232;2023-02-04T10:16:12;34.60;;;9.48;;
33491;SDS011;20010;51.488;7.232;2023-02-04T10:18:40;24.58;;;7.43;;
33491;SDS011;20010;51.488;7.232;2023-02-04T10:23:40;32.75;;;9.85;;
33491;SDS011;20010;51.488;7.232;2023-02-04T10:26:10;29.45;;;9.35;;
33491;SDS011;20010;51.488;7.232;2023-02-04T10:28:38;25.42;;;8.77;;
33491;SDS011;20010;51.488;7.232;2023-02-04T10:31:26;25.75;;;8.07;;
33491;SDS011;20010;51.488;7.232;2023-02-04T10:36:33;30.23;;;8.95;;
33491;SDS011;20010;51.488;7.232;2023-02-04T10:39:00;33.05;;;9.05;;
33491;SDS011;20010;51.488;7.232;2023-02-04T10:41:28;18.23;;;7.80;;
33491;SDS011;20010;51.488;7.232;2023-02-04T10:44:02;24.92;;;9.50;;
33491;SDS011;20010;51.488;7.232;2023-02-04T10:46:30;29.08;;;8.77;;
33491;SDS011;20010;51.488;7.232;2023-02-04T10:48:57;31.92;;;9.63;;
33491;SDS011;20010;51.488;7.232;2023-02-04T10:51:23;33.30;;;8.65;;
33491;SDS011;20010;51.488;7.232;2023-02-04T10:53:50;21.17;;;7.88;;
33491;SDS011;20010;51.488;7.232;2023-02-04T10:56:35;23.25;;;7.45;;
33491;SDS011;20010;51.488;7.232;2023-02-04T10:59:02;32.67;;;7.85;;
33491;SDS011;20010;51.488;7.232;2023-02-04T11:01:29;25.27;;;8.23;;
33491;SDS011;20010;51.488;7.232;2023-02-04T11:03:56;21.45;;;7.43;;
33491;SDS011;20010;51.488;7.232;2023-02-04T11:06:23;31.73;;;8.88;;
33491;SDS011;20010;51.488;7.232;2023-02-04T11:08:50;23.60;;;7.47;;
33491;SDS011;20010;51.488;7.232;2023-02-04T11:11:19;31.80;;;8.25;;
33491;SDS011;20010;51.488;7.232;2023-02-04T11:18:58;32.42;;;8.15;;
33491;SDS011;20010;51.488;7.232;2023-02-04T11:24:18;25.55;;;9.73;;
33491;SDS011;20010;51.488;7.232;2023-02-04T11:26:51;31.13;;;11.30;;
33491;SDS011;20010;51.488;7.232;2023-02-04T11:37:45;20.92;;;8.73;;
33491;SDS011;20010;51.488;7.232;2023-02-04T11:43:08;22.67;;;8.80;;
33491;SDS011;20010;51.488;7.232;2023-02-04T11:45:37;29.10;;;9.27;;
33491;SDS011;20010;51.488;7.232;2023-02-04T11:48:11;35.60;;;10.15;;
33491;SDS011;20010;51.488;7.232;2023-02-04T11:50:39;29.15;;;10.25;;
33491;SDS011;20010;51.488;7.232;2023-02-04T11:53:10;44.00;;;12.88;;
33491;SDS011;20010;51.488;7.232;2023-02-04T11:55:42;34.03;;;11.73;;
33491;SDS011;20010;51.488;7.232;2023-02-04T11:58:13;37.33;;;11.75;;
33491;SDS011;20010;51.488;7.232;2023-02-04T12:00:41;23.80;;;10.02;;
33491;SDS011;20010;51.488;7.232;2023-02-04T12:03:21;23.08;;;11.00;;
33491;SDS011;20010;51.488;7.232;2023-02-04T12:05:52;34.15;;;12.27;;
33491;SDS011;20010;51.488;7.232;2023-02-04T12:13:24;38.40;;;12.45;;
33491;SDS011;20010;51.488;7.232;2023-02-04T12:15:53;26.83;;;12.18;;
33491;SDS011;20010;51.488;7.232;2023-02-04T12:18:23;32.10;;;12.15;;
33491;SDS011;20010;51.488;7.232;2023-02-04T12:20:53;24.45;;;11.35;;
33491;SDS011;20010;51.488;7.232;2023-02-04T12:23:21;23.10;;;9.80;;
33491;SDS011;20010;51.488;7.232;2023-02-04T12:25:48;36.60;;;10.73;;
33491;SDS011;20010;51.488;7.232;2023-02-04T12:28:15;23.67;;;10.18;;
33491;SDS011;20010;51.488;7.232;2023-02-04T12:30:42;31.48;;;10.23;;
33491;SDS011;20010;51.488;7.232;2023-02-04T12:33:09;25.73;;;9.90;;
33491;SDS011;20010;51.488;7.232;2023-02-04T12:35:36;28.55;;;10.10;;
33491;SDS011;20010;51.488;7.232;2023-02-04T12:38:02;28.75;;;11.85;;
33491;SDS011;20010;51.488;7.232;2023-02-04T12:40:29;19.67;;;8.38;;
33491;SDS011;20010;51.488;7.232;2023-02-04T12:42:56;25.10;;;9.95;;
33491;SDS011;20010;51.488;7.232;2023-02-04T12:45:22;28.20;;;9.50;;
33491;SDS011;20010;51.488;7.232;2023-02-04T12:47:49;22.85;;;9.43;;
33491;SDS011;20010;51.488;7.232;2023-02-04T12:50:16;30.33;;;11.88;;
33491;SDS011;20010;51.488;7.232;2023-02-04T12:52:48;29.55;;;9.80;;
33491;SDS011;20010;51.488;7.232;2023-02-04T12:55:16;26.00;;;9.52;;
33491;SDS011;20010;51.488;7.232;2023-02-04T12:57:43;24.35;;;9.63;;
33491;SDS011;20010;51.488;7.232;2023-02-04T13:00:10;19.58;;;8.30;;
33491;SDS011;20010;51.488;7.232;2023-02-04T13:02:37;25.17;;;8.27;;
33491;SDS011;20010;51.488;7.232;2023-02-04T13:05:04;30.30;;;9.85;;
33491;SDS011;20010;51.488;7.232;2023-02-04T13:07:31;24.65;;;8.93;;
33491;SDS011;20010;51.488;7.232;2023-02-04T13:09:59;25.60;;;10.48;;
33491;SDS011;20010;51.488;7.232;2023-02-04T13:12:25;19.92;;;8.25;;
33491;SDS011;20010;51.488;7.232;2023-02-04T13:14:52;25.70;;;9.13;;
33491;SDS011;20010;51.488;7.232;2023-02-04T13:17:19;25.73;;;10.70;;
33491;SDS011;20010;51.488;7.232;2023-02-04T13:19:45;25.08;;;8.77;;
33491;SDS011;20010;51.488;7.232;2023-02-04T13:22:12;20.08;;;9.77;;
33491;SDS011;20010;51.488;7.232;2023-02-04T13:24:38;34.75;;;12.13;;
33491;SDS011;20010;51.488;7.232;2023-02-04T13:27:05;23.90;;;10.23;;
33491;SDS011;20010;51.488;7.232;2023-02-04T13:29:31;20.73;;;9.88;;
33491;SDS011;20010;51.488;7.232;2023-02-04T13:31:58;18.73;;;8.63;;
33491;SDS011;20010;51.488;7.232;2023-02-04T13:34:25;23.70;;;9.13;;
33491;SDS011;20010;51.488;7.232;2023-02-04T13:36:51;21.40;;;8.75;;
33491;SDS011;20010;51.488;7.232;2023-02-04T13:39:19;26.63;;;8.88;;
33491;SDS011;20010;51.488;7.232;2023-02-04T13:41:46;26.20;;;9.27;;
33491;SDS011;20010;51.488;7.232;2023-02-04T13:44:12;21.33;;;8.25;;
33491;SDS011;20010;51.488;7.232;2023-02-04T13:46:39;18.20;;;7.50;;
33491;SDS011;20010;51.488;7.232;2023-02-04T13:49:05;16.02;;;7.68;;
33491;SDS011;20010;51.488;7.232;2023-02-04T13:51:32;25.92;;;8.23;;
33491;SDS011;20010;51.488;7.232;2023-02-04T13:53:58;21.52;;;7.65;;
33491;SDS011;20010;51.488;7.232;2023-02-04T13:56:26;16.27;;;7.60;;
33491;SDS011;20010;51.488;7.232;2023-02-04T13:58:53;21.90;;;9.20;;
33491;SDS011;20010;51.488;7.232;2023-02-04T14:01:19;25.63;;;10.30;;
33491;SDS011;20010;51.488;7.232;2023-02-04T14:03:46;19.63;;;8.15;;
33491;SDS011;20010;51.488;7.232;2023-02-04T14:06:12;27.10;;;8.95;;
33491;SDS011;20010;51.488;7.232;2023-02-04T14:08:40;20.60;;;7.80;;
33491;SDS011;20010;51.488;7.232;2023-02-04T14:11:06;24.00;;;7.68;;
33491;SDS011;20010;51.488;7.232;2023-02-04T14:13:33;22.58;;;7.95;;
33491;SDS011;20010;51.488;7.232;2023-02-04T14:15:59;24.02;;;9.02;;
33491;SDS011;20010;51.488;7.232;2023-02-04T14:18:26;22.30;;;9.15;;
33491;SDS011;20010;51.488;7.232;2023-02-04T14:20:52;20.35;;;7.68;;
33491;SDS011;20010;51.488;7.232;2023-02-04T14:23:19;16.27;;;7.80;;
33491;SDS011;20010;51.488;7.232;2023-02-04T14:25:45;22.17;;;7.80;;
33491;SDS011;20010;51.488;7.232;2023-02-04T14:28:12;16.20;;;7.40;;
33491;SDS011;20010;51.488;7.232;2023-02-04T14:30:39;21.42;;;7.28;;
33491;SDS011;20010;51.488;7.232;2023-02-04T14:33:05;17.83;;;7.95;;
33491;SDS011;20010;51.488;7.232;2023-02-04T14:35:34;21.83;;;7.38;;
33491;SDS011;20010;51.488;7.232;2023-02-04T14:38:00;18.38;;;7.13;;
33491;SDS011;20010;51.488;7.232;2023-02-04T14:40:27;22.92;;;8.75;;
33491;SDS011;20010;51.488;7.232;2023-02-04T14:42:53;18.67;;;8.40;;
33491;SDS011;20010;51.488;7.232;2023-02-04T14:45:20;17.33;;;6.80;;
33491;SDS011;20010;51.488;7.232;2023-02-04T14:47:46;24.48;;;8.18;;
33491;SDS011;20010;51.488;7.232;2023-02-04T14:50:14;21.55;;;8.10;;
33491;SDS011;20010;51.488;7.232;2023-02-04T14:52:41;17.63;;;6.85;;
33491;SDS011;20010;51.488;7.232;2023-02-04T14:55:08;18.27;;;7.13;;
33491;SDS011;20010;51.488;7.232;2023-02-04T14:57:37;20.73;;;8.45;;
33491;SDS011;20010;51.488;7.232;2023-02-04T15:00:04;23.70;;;8.90;;
33491;SDS011;20010;51.488;7.232;2023-02-04T15:02:34;16.13;;;7.80;;
33491;SDS011;20010;51.488;7.232;2023-02-04T15:05:01;22.45;;;8.48;;
33491;SDS011;20010;51.488;7.232;2023-02-04T15:07:28;16.27;;;7.30;;
33491;SDS011;20010;51.488;7.232;2023-02-04T15:09:54;23.10;;;8.48;;
33491;SDS011;20010;51.488;7.232;2023-02-04T15:12:21;19.52;;;8.70;;
33491;SDS011;20010;51.488;7.232;2023-02-04T15:14:47;19.40;;;7.20;;
33491;SDS011;20010;51.488;7.232;2023-02-04T15:17:14;20.55;;;6.75;;
33491;SDS011;20010;51.488;7.232;2023-02-04T15:19:40;18.10;;;7.38;;
33491;SDS011;20010;51.488;7.232;2023-02-04T15:22:07;22.35;;;7.38;;
33491;SDS011;20010;51.488;7.232;2023-02-04T15:24:33;14.70;;;6.90;;
33491;SDS011;20010;51.488;7.232;2023-02-04T15:27:01;14.30;;;7.00;;
33491;SDS011;20010;51.488;7.232;2023-02-04T15:29:28;23.00;;;6.72;;